Карточка аэропорта URRP

Внимание!
Информация на этой странице в стадии наполнения.
Если вы не увидели какой-то информации, или заметили неточность - пожалуйста сообщите нам!
Спасибо!
Команда RU-STAFF
Название аэропортаПлатов
Название аэропорта (англ.)Platov
Превышение282 ft. (86 m.)
Координаты47°29.634', 39°55.482'
Высота перехода3500 ft
Эшелон переходаFL50 (QNH >= 996); FL60 (QNH < 996)
Коды ответчика1001-1017
Зона ОрВДРостов-на-Дону РПИ (URRV)
Данные METARURRP 010430Z 00000MPS 0450 0250SW R05/0400N -SHSN PRFG SCT001 SCT///CB 00/00 Q1009 R05/590525 TEMPO 0100 FZFG BKN001 BKN020CB RMK QBB030 OBST OBSC QFE752/1003
Проноз погоды (TAF)URRP 010155Z 0103/0203 20003G12MPS 6000 -SHRASN FEW005 BKN016CB TEMPO 0103/0109 31003G08MPS 0300 FG OVC002 BKN016CB TEMPO 0109/0124 27003G10MPS FEW003 SCT016CB
NOTAMshow/hide NOTAM
AWOS   TABLE

Информация о ВПП

ВПП Длина ВПП (м.) Покрытие Курс ВПП Частота ILS
233900Цементобетон226110.9
053900Цементобетон46111.5

Диспетчерские позиции

Позывной Наименование органа УВД Частота
URRP_TWRПлатов-Вышка119.7
URRP_R_APPПлатов - Круг121.2
URRP_GNDПлатов - руление119.0
URRP_DELПлатов-деливери127.1
URRP_APPПлатов-подход128.2



Спутниковое изображение